Portada
METAR-TAF:

METAR-TAF

Aeroports :

Talara, Perú

latitud: 04-34S, longitud: 081-15W, altitud: 85 m

Observació

L'informe es va fer fa 1 hora i 0 minuts, a les 13:00 UTC
Vent 18 kt del Sud-Est
Temperatura 18°C
Humitat 73%
Pressió 1014 hPa
Visibilitat 10 km o més
Cel ennuvolat a una alçada de 4000 ft

METAR: SPYL 261300Z 14018KT 9999 BKN040 18/13 Q1014 RMK BIRD HAZARD RWY 17/35 PP000

Hora: 09:00 (14:00 UTC)

Pronòstic

L'informe es va fer fa 3 hores i 0 minuts, a les 11:00 UTC
Pronòstic vàlid del 26 a les 12 UTC al 27 a les 12 UTC
Vent 17 kt del Sud-Est
Visibilitat 10 km o més
sense núvols per sota de 1500 mi sense presència de cumulonimbus.
Evolucionant progressivament
l' 26 a les 16 UTC al 26 a les 18 UTC
Vent 13 kt del Sud
Evolucionant progressivament
l' 27 a les 04 UTC al 27 a les 08 UTC
Vent 16 kt del Sud-Est

TAF: SPYL 261100Z 2612/2712 13017KT CAVOK TX25/2618Z TN15/2711Z BECMG 2616/2618 19013KT BECMG 2704/2708 14016KT

Observacions i pronòstics meteorològics de més de 4000 aeroports (METAR i TAF).

Les estacions disponibles són els punts grocs i vermells al mapa.

Posi el ratolí al punt desitjat per veure el nom de l'estació.

Feu clic per veure les observacions i els pronòstics meteorològics.

Per canviar el mapa: feu clic els botons verds amb una creu de color negre per apropar; al botó verd amb un guió per allunyar la imatge; o en les fletxes verdes per a mapes adjacents.


METAR-TAF: